Time;durP1;ratioP1;P1;durP2;ratioP2;P2;SDS_P1;SDS_P2;PMS_P1;PMS_P2;Temp;Humidity;BMP_temperature;BMP_pressure;BME280_temperature;BME280_humidity;BME280_pressure;Samples;Min_cycle;Max_cycle;Signal;HPM_P1;HPM_P2
2022/06/04 00:01:41;;;;;;;5.45;3.40;;;;;;;;;;4933662;29;20024;-68
2022/06/04 00:04:06;;;;;;;6.25;3.20;;;;;;;;;;4933077;29;20064;-68
2022/06/04 00:06:32;;;;;;;13.35;3.83;;;;;;;;;;4935017;29;20068;-68
2022/06/04 00:08:57;;;;;;;7.43;3.10;;;;;;;;;;4938173;29;20030;-68
2022/06/04 00:16:49;;;;;;;7.63;3.33;;;;;;;;;;4925821;29;20067;-68
2022/06/04 00:19:15;;;;;;;8.57;2.97;;;;;;;;;;4931742;29;20028;-68
2022/06/04 00:21:40;;;;;;;8.00;2.88;;;;;;;;;;4944587;28;20030;-68
2022/06/04 00:24:06;;;;;;;5.65;3.25;;;;;;;;;;4930215;29;20375;-68
2022/06/04 00:26:31;;;;;;;7.53;2.80;;;;;;;;;;4935221;29;20040;-68
2022/06/04 00:28:56;;;;;;;5.63;2.92;;;;;;;;;;4935691;29;20033;-68
2022/06/04 00:31:22;;;;;;;6.03;2.80;;;;;;;;;;4927955;29;20032;-68
2022/06/04 00:33:47;;;;;;;7.43;3.20;;;;;;;;;;4934014;29;20055;-68
2022/06/04 00:36:12;;;;;;;5.45;2.60;;;;;;;;;;4945171;29;20399;-68
2022/06/04 00:38:38;;;;;;;11.95;3.03;;;;;;;;;;4943516;29;20020;-68
2022/06/04 00:41:09;;;;;;;5.05;2.83;;;;;;;;;;4930467;29;20043;-68
2022/06/04 00:44:09;;;;;;;7.55;2.40;;;;;;;;;;4938600;29;20487;-68
2022/06/04 00:46:34;;;;;;;11.48;3.08;;;;;;;;;;4883517;29;20170;-67
2022/06/04 00:49:00;;;;;;;7.57;2.58;;;;;;;;;;4918280;29;20051;-68
2022/06/04 00:51:25;;;;;;;8.18;2.80;;;;;;;;;;4939053;29;20035;-68
2022/06/04 00:53:50;;;;;;;7.53;2.60;;;;;;;;;;4941414;29;20027;-68
2022/06/04 00:56:34;;;;;;;5.38;2.60;;;;;;;;;;4927142;29;20039;-68
2022/06/04 00:59:14;;;;;;;5.30;2.92;;;;;;;;;;4933661;29;20023;-68
2022/06/04 01:01:55;;;;;;;6.20;2.42;;;;;;;;;;4925117;29;20032;-68
2022/06/04 01:04:49;;;;;;;7.82;2.72;;;;;;;;;;4934414;29;20031;-68
2022/06/04 01:07:29;;;;;;;6.22;2.20;;;;;;;;;;4927145;29;20039;-67
2022/06/04 01:10:13;;;;;;;4.93;2.53;;;;;;;;;;4936841;29;20028;-68
2022/06/04 01:12:41;;;;;;;5.93;2.40;;;;;;;;;;4933498;29;20024;-67
2022/06/04 01:15:09;;;;;;;5.82;2.38;;;;;;;;;;4942458;29;20031;-68
2022/06/04 01:17:46;;;;;;;5.75;2.50;;;;;;;;;;4936395;29;20432;-67
2022/06/04 01:20:17;;;;;;;5.47;2.42;;;;;;;;;;4932042;29;20134;-67
2022/06/04 01:22:55;;;;;;;4.90;1.90;;;;;;;;;;4931052;29;20037;-67
2022/06/04 01:25:34;;;;;;;6.22;2.65;;;;;;;;;;4931879;29;20082;-68
2022/06/04 01:28:04;;;;;;;5.95;2.45;;;;;;;;;;4934793;29;20040;-68
2022/06/04 01:30:29;;;;;;;5.40;2.33;;;;;;;;;;4929869;29;20027;-68
2022/06/04 01:33:05;;;;;;;5.63;2.42;;;;;;;;;;4936815;29;20035;-68
2022/06/04 01:35:40;;;;;;;9.93;2.97;;;;;;;;;;4941625;29;20087;-68
2022/06/04 01:38:05;;;;;;;8.52;2.53;;;;;;;;;;4943783;29;20059;-67
2022/06/04 01:43:17;;;;;;;6.03;2.38;;;;;;;;;;4938260;29;20035;-67
2022/06/04 01:45:44;;;;;;;5.30;2.20;;;;;;;;;;4939502;29;20491;-68
2022/06/04 01:48:11;;;;;;;7.65;2.60;;;;;;;;;;4944030;29;20027;-68
2022/06/04 01:50:39;;;;;;;6.43;2.22;;;;;;;;;;4937016;29;20079;-68
2022/06/04 01:53:06;;;;;;;7.82;3.35;;;;;;;;;;4939653;29;20106;-68
2022/06/04 01:55:36;;;;;;;7.22;3.30;;;;;;;;;;4936986;29;20142;-68
2022/06/04 01:58:06;;;;;;;6.25;3.30;;;;;;;;;;4927732;29;20096;-68
2022/06/04 02:00:36;;;;;;;11.95;3.65;;;;;;;;;;4928332;29;20126;-67
2022/06/04 02:03:05;;;;;;;5.65;3.20;;;;;;;;;;4927073;29;20375;-68
2022/06/04 02:05:34;;;;;;;13.70;3.08;;;;;;;;;;4929950;29;20039;-68
2022/06/04 02:08:01;;;;;;;9.45;3.90;;;;;;;;;;4933261;29;20534;-68
2022/06/04 02:10:27;;;;;;;6.60;3.20;;;;;;;;;;4938625;29;20031;-68
2022/06/04 02:12:54;;;;;;;8.48;3.17;;;;;;;;;;4939352;29;20041;-68
2022/06/04 02:15:22;;;;;;;7.78;4.05;;;;;;;;;;4932474;29;20064;-68
2022/06/04 02:17:49;;;;;;;7.45;3.78;;;;;;;;;;4942345;29;20027;-68
2022/06/04 02:20:14;;;;;;;7.68;3.40;;;;;;;;;;4935109;29;20036;-68
2022/06/04 02:22:40;;;;;;;12.57;3.92;;;;;;;;;;4941460;29;20028;-68
2022/06/04 02:25:09;;;;;;;10.18;4.18;;;;;;;;;;4938180;29;20471;-68
2022/06/04 02:27:35;;;;;;;8.25;3.92;;;;;;;;;;4930235;29;20054;-68
2022/06/04 02:30:00;;;;;;;8.50;3.53;;;;;;;;;;4926878;29;20463;-68
2022/06/04 02:32:31;;;;;;;8.73;4.05;;;;;;;;;;4941210;29;20451;-68
2022/06/04 02:34:59;;;;;;;7.32;3.40;;;;;;;;;;4931472;29;20039;-68
2022/06/04 02:37:34;;;;;;;8.18;4.35;;;;;;;;;;4935862;29;20032;-68
2022/06/04 02:40:09;;;;;;;8.80;4.00;;;;;;;;;;4924686;29;20020;-68
2022/06/04 02:42:37;;;;;;;8.95;3.97;;;;;;;;;;4928514;29;20490;-68
2022/06/04 02:45:05;;;;;;;7.93;4.00;;;;;;;;;;4933088;29;20082;-68
2022/06/04 02:47:40;;;;;;;9.10;3.83;;;;;;;;;;4942119;29;20047;-68
2022/06/04 02:50:09;;;;;;;9.15;3.28;;;;;;;;;;4938591;29;20042;-68
2022/06/04 02:52:35;;;;;;;10.95;4.38;;;;;;;;;;4933384;29;20028;-68
2022/06/04 02:55:12;;;;;;;9.32;4.18;;;;;;;;;;4939549;29;20027;-68
2022/06/04 02:57:39;;;;;;;12.93;4.45;;;;;;;;;;4934154;29;20039;-68
2022/06/04 03:00:05;;;;;;;9.90;3.90;;;;;;;;;;4933951;29;20102;-68
2022/06/04 03:02:31;;;;;;;6.35;3.75;;;;;;;;;;4922355;29;20103;-68
2022/06/04 03:05:04;;;;;;;8.45;3.33;;;;;;;;;;4933174;29;20028;-68
2022/06/04 03:07:29;;;;;;;8.03;3.80;;;;;;;;;;4939118;29;20036;-68
2022/06/04 03:09:59;;;;;;;7.30;3.97;;;;;;;;;;4944136;29;20250;-68
2022/06/04 03:12:24;;;;;;;6.30;3.83;;;;;;;;;;4940356;29;20032;-68
2022/06/04 03:14:49;;;;;;;9.73;3.72;;;;;;;;;;4939342;29;20027;-68
2022/06/04 03:17:15;;;;;;;8.65;4.22;;;;;;;;;;4937373;29;20042;-68
2022/06/04 03:19:40;;;;;;;11.50;4.05;;;;;;;;;;4933321;29;20032;-68
2022/06/04 03:22:05;;;;;;;6.93;3.13;;;;;;;;;;4924757;29;20479;-68
2022/06/04 03:24:31;;;;;;;6.10;3.63;;;;;;;;;;4941321;29;20027;-68
2022/06/04 03:26:56;;;;;;;8.77;4.50;;;;;;;;;;4927807;29;20027;-68
2022/06/04 03:29:22;;;;;;;10.85;4.15;;;;;;;;;;4929521;29;20098;-68
2022/06/04 03:31:47;;;;;;;6.38;4.13;;;;;;;;;;4934559;29;20457;-67
2022/06/04 03:34:13;;;;;;;7.60;4.00;;;;;;;;;;4912128;29;20497;-68
2022/06/04 03:36:38;;;;;;;10.70;4.43;;;;;;;;;;4937021;29;20126;-68
2022/06/04 03:39:05;;;;;;;9.30;4.00;;;;;;;;;;4923037;29;20036;-67
2022/06/04 03:41:30;;;;;;;8.43;3.90;;;;;;;;;;4938197;29;20443;-68
2022/06/04 03:43:55;;;;;;;11.80;4.65;;;;;;;;;;4939663;29;20035;-68
2022/06/04 03:46:21;;;;;;;11.38;3.65;;;;;;;;;;4933799;29;20051;-68
2022/06/04 03:48:46;;;;;;;13.45;4.38;;;;;;;;;;4936150;29;20034;-68
2022/06/04 03:51:12;;;;;;;6.75;4.55;;;;;;;;;;4930375;29;20492;-68
2022/06/04 03:53:37;;;;;;;8.93;3.60;;;;;;;;;;4931215;29;20039;-68
2022/06/04 03:56:02;;;;;;;10.30;4.85;;;;;;;;;;4932872;29;20402;-68
2022/06/04 03:58:30;;;;;;;7.68;2.67;;;;;;;;;;4935461;29;20039;-68
2022/06/04 04:00:55;;;;;;;9.77;4.10;;;;;;;;;;4926763;29;20023;-68
2022/06/04 04:03:21;;;;;;;12.30;4.88;;;;;;;;;;4932075;29;20089;-68
2022/06/04 04:05:48;;;;;;;7.55;4.18;;;;;;;;;;4936530;29;20454;-68
2022/06/04 04:08:14;;;;;;;8.18;3.30;;;;;;;;;;4935329;29;20031;-68
2022/06/04 04:10:40;;;;;;;13.65;4.25;;;;;;;;;;4941982;29;20038;-68
2022/06/04 04:13:06;;;;;;;6.00;3.15;;;;;;;;;;4931796;29;20110;-68
2022/06/04 04:15:32;;;;;;;7.88;2.50;;;;;;;;;;4935831;29;20151;-68
2022/06/04 04:17:57;;;;;;;11.55;3.67;;;;;;;;;;4936682;29;20446;-68
2022/06/04 04:20:24;;;;;;;6.95;3.47;;;;;;;;;;4921930;29;20028;-68
2022/06/04 04:22:50;;;;;;;9.48;4.05;;;;;;;;;;4930341;29;20024;-68
2022/06/04 04:25:16;;;;;;;8.57;4.65;;;;;;;;;;4932047;29;20038;-68
2022/06/04 04:27:42;;;;;;;10.55;5.60;;;;;;;;;;4929996;29;20036;-68
2022/06/04 04:30:09;;;;;;;11.68;4.85;;;;;;;;;;4935104;29;20360;-68
2022/06/04 04:32:34;;;;;;;8.75;3.65;;;;;;;;;;4936193;29;20592;-67
2022/06/04 04:35:00;;;;;;;11.60;4.40;;;;;;;;;;4939554;29;20070;-68
2022/06/04 04:37:25;;;;;;;7.20;3.47;;;;;;;;;;4937994;29;20051;-68
2022/06/04 04:39:52;;;;;;;5.60;2.78;;;;;;;;;;4936946;29;20047;-68
2022/06/04 04:42:17;;;;;;;10.98;3.45;;;;;;;;;;4937476;29;20036;-68
2022/06/04 04:44:43;;;;;;;7.13;2.50;;;;;;;;;;4936812;29;20102;-68
2022/06/04 04:47:08;;;;;;;11.50;4.35;;;;;;;;;;4931152;29;20520;-68
2022/06/04 04:49:34;;;;;;;9.77;4.07;;;;;;;;;;4938752;29;20107;-68
2022/06/04 04:51:59;;;;;;;11.20;4.25;;;;;;;;;;4933252;29;20028;-68
2022/06/04 04:54:25;;;;;;;10.90;4.43;;;;;;;;;;4935069;29;20433;-67
2022/06/04 04:56:50;;;;;;;13.65;4.32;;;;;;;;;;4933430;29;20509;-67
2022/06/04 04:59:15;;;;;;;5.90;3.47;;;;;;;;;;4924261;29;20032;-68
2022/06/04 05:01:40;;;;;;;7.95;4.25;;;;;;;;;;4942588;29;20046;-68
2022/06/04 05:04:06;;;;;;;8.50;3.33;;;;;;;;;;4932563;29;20415;-67
2022/06/04 05:06:31;;;;;;;9.45;4.03;;;;;;;;;;4933061;29;20020;-67
2022/06/04 05:08:56;;;;;;;7.05;3.35;;;;;;;;;;4941283;28;20090;-67
2022/06/04 05:11:23;;;;;;;10.20;4.15;;;;;;;;;;4937814;29;20479;-67
2022/06/04 05:13:49;;;;;;;12.23;4.70;;;;;;;;;;4935057;29;20054;-68
2022/06/04 05:16:21;;;;;;;9.65;4.68;;;;;;;;;;4935722;29;20090;-68
2022/06/04 05:18:47;;;;;;;11.32;4.38;;;;;;;;;;4935858;29;20483;-67
2022/06/04 05:21:23;;;;;;;10.27;3.83;;;;;;;;;;4919273;29;20026;-68
2022/06/04 05:23:49;;;;;;;10.13;4.15;;;;;;;;;;4938377;29;20510;-67
2022/06/04 05:26:15;;;;;;;10.35;4.35;;;;;;;;;;4929133;29;20045;-68
2022/06/04 05:28:40;;;;;;;7.43;4.13;;;;;;;;;;4936813;29;20024;-68
2022/06/04 05:31:05;;;;;;;6.20;3.75;;;;;;;;;;4941315;29;20038;-67
2022/06/04 05:33:30;;;;;;;8.93;3.65;;;;;;;;;;4937487;29;20115;-68
2022/06/04 05:35:56;;;;;;;12.38;3.90;;;;;;;;;;4936510;29;20072;-68
2022/06/04 05:38:21;;;;;;;8.48;3.72;;;;;;;;;;4928792;29;20107;-68
2022/06/04 05:40:46;;;;;;;6.90;4.13;;;;;;;;;;4941951;29;20373;-68
2022/06/04 05:43:12;;;;;;;6.85;3.75;;;;;;;;;;4932690;29;20066;-68
2022/06/04 05:45:37;;;;;;;11.68;4.03;;;;;;;;;;4944368;29;20379;-68
2022/06/04 05:48:02;;;;;;;9.25;4.38;;;;;;;;;;4942197;29;20043;-67
2022/06/04 05:50:27;;;;;;;12.07;3.53;;;;;;;;;;4930425;29;20118;-68
2022/06/04 05:52:53;;;;;;;6.38;2.80;;;;;;;;;;4944692;29;20031;-67
2022/06/04 05:55:18;;;;;;;11.70;4.38;;;;;;;;;;4923884;29;20383;-68
2022/06/04 05:57:43;;;;;;;7.97;3.72;;;;;;;;;;4938904;29;20055;-68
2022/06/04 06:00:09;;;;;;;6.28;3.00;;;;;;;;;;4937680;29;20035;-67
2022/06/04 06:02:35;;;;;;;5.72;3.75;;;;;;;;;;4940819;29;20047;-68
2022/06/04 06:05:01;;;;;;;4.90;3.38;;;;;;;;;;4934167;29;20110;-67
2022/06/04 06:07:26;;;;;;;5.95;3.40;;;;;;;;;;4933709;29;20472;-67
2022/06/04 06:09:51;;;;;;;4.15;2.78;;;;;;;;;;4936899;29;20463;-68
2022/06/04 06:12:16;;;;;;;14.57;4.03;;;;;;;;;;4937004;29;20541;-67
2022/06/04 06:14:42;;;;;;;10.32;3.88;;;;;;;;;;4937240;29;20047;-67
2022/06/04 06:17:07;;;;;;;5.38;3.75;;;;;;;;;;4939922;29;20043;-67
2022/06/04 06:19:33;;;;;;;7.78;4.45;;;;;;;;;;4938811;29;20028;-67
2022/06/04 06:21:58;;;;;;;13.45;4.72;;;;;;;;;;4939635;29;20479;-68
2022/06/04 06:24:23;;;;;;;6.88;4.15;;;;;;;;;;4940108;29;20486;-68
2022/06/04 06:26:53;;;;;;;7.32;2.78;;;;;;;;;;4937231;29;20383;-67
2022/06/04 06:29:19;;;;;;;10.70;3.85;;;;;;;;;;4930022;29;20391;-67
2022/06/04 06:31:45;;;;;;;15.05;4.20;;;;;;;;;;4935298;29;20042;-67
2022/06/04 06:34:11;;;;;;;8.80;3.58;;;;;;;;;;4938220;29;20036;-67
2022/06/04 06:36:36;;;;;;;13.10;4.80;;;;;;;;;;4954020;29;20043;-68
2022/06/04 06:39:02;;;;;;;6.75;4.05;;;;;;;;;;4947404;29;20402;-67
2022/06/04 06:41:27;;;;;;;8.00;3.72;;;;;;;;;;4930183;29;20038;-67
2022/06/04 06:43:53;;;;;;;7.93;4.07;;;;;;;;;;4941565;29;20094;-67
2022/06/04 06:46:22;;;;;;;8.38;3.90;;;;;;;;;;4945183;29;20059;-67
2022/06/04 06:48:49;;;;;;;8.73;3.83;;;;;;;;;;4947395;29;20344;-68
2022/06/04 06:51:20;;;;;;;8.50;4.25;;;;;;;;;;4953836;29;20031;-67
2022/06/04 06:53:45;;;;;;;8.10;4.35;;;;;;;;;;4948553;29;20051;-67
2022/06/04 06:56:12;;;;;;;8.15;4.18;;;;;;;;;;4939023;29;20478;-68
2022/06/04 06:58:37;;;;;;;11.43;4.20;;;;;;;;;;4946214;29;20040;-67
2022/06/04 07:01:03;;;;;;;8.50;4.55;;;;;;;;;;4945218;29;20035;-68
2022/06/04 07:03:28;;;;;;;5.35;3.63;;;;;;;;;;4951615;29;20023;-67
2022/06/04 07:05:54;;;;;;;14.13;4.82;;;;;;;;;;4944489;29;20066;-68
2022/06/04 07:08:20;;;;;;;9.95;4.53;;;;;;;;;;4942999;29;20134;-67
2022/06/04 07:10:45;;;;;;;13.50;4.70;;;;;;;;;;4952120;29;20022;-67
2022/06/04 07:13:10;;;;;;;9.90;4.63;;;;;;;;;;4941292;29;20027;-67
2022/06/04 07:15:36;;;;;;;9.15;4.07;;;;;;;;;;4928895;29;20063;-67
2022/06/04 07:18:01;;;;;;;11.77;4.90;;;;;;;;;;4935582;29;20043;-67
2022/06/04 07:20:26;;;;;;;6.63;3.42;;;;;;;;;;4924000;29;20383;-68
2022/06/04 07:22:52;;;;;;;13.70;4.70;;;;;;;;;;4948589;29;20031;-68
2022/06/04 07:25:18;;;;;;;10.57;3.80;;;;;;;;;;4935214;29;20029;-67
2022/06/04 07:27:43;;;;;;;12.07;4.20;;;;;;;;;;4940942;29;20043;-67
2022/06/04 07:30:09;;;;;;;10.80;4.07;;;;;;;;;;4926447;29;20035;-67
2022/06/04 07:32:34;;;;;;;3.95;2.70;;;;;;;;;;4942134;29;20028;-67
2022/06/04 07:34:59;;;;;;;10.23;4.25;;;;;;;;;;4931656;29;20076;-68
2022/06/04 07:37:24;;;;;;;6.35;2.92;;;;;;;;;;4928443;29;20479;-67
2022/06/04 07:39:50;;;;;;;7.57;3.58;;;;;;;;;;4944231;29;20451;-68
2022/06/04 07:42:15;;;;;;;8.60;3.55;;;;;;;;;;4930943;29;20480;-67
2022/06/04 07:44:40;;;;;;;9.70;4.00;;;;;;;;;;4936974;29;20094;-68
2022/06/04 07:47:05;;;;;;;3.80;2.92;;;;;;;;;;4942672;29;20114;-67
2022/06/04 07:49:30;;;;;;;10.93;4.60;;;;;;;;;;4934601;29;20059;-67
2022/06/04 07:51:56;;;;;;;8.05;4.03;;;;;;;;;;4944332;29;20047;-68
2022/06/04 07:54:22;;;;;;;6.10;3.45;;;;;;;;;;4941338;29;20435;-67
2022/06/04 07:56:47;;;;;;;7.00;3.35;;;;;;;;;;4948486;29;20047;-67
2022/06/04 07:59:15;;;;;;;7.68;3.70;;;;;;;;;;4944351;29;20051;-68
2022/06/04 08:01:41;;;;;;;6.20;2.80;;;;;;;;;;4939762;29;20028;-67
2022/06/04 08:04:06;;;;;;;8.85;3.35;;;;;;;;;;4941353;29;20043;-67
2022/06/04 08:06:32;;;;;;;7.00;3.10;;;;;;;;;;4935675;29;20498;-68
2022/06/04 08:09:01;;;;;;;8.85;3.50;;;;;;;;;;4933309;29;20102;-67
2022/06/04 08:11:33;;;;;;;8.38;3.10;;;;;;;;;;4931235;29;20369;-67
2022/06/04 08:14:09;;;;;;;5.68;2.70;;;;;;;;;;4937326;29;20024;-67
2022/06/04 08:16:35;;;;;;;10.75;3.08;;;;;;;;;;4933248;29;20040;-67
2022/06/04 08:19:01;;;;;;;7.35;3.00;;;;;;;;;;4924487;29;20056;-67
2022/06/04 08:21:26;;;;;;;8.23;3.05;;;;;;;;;;4938682;29;20051;-67
2022/06/04 08:45:19;;;;;;;;;;;;;;;;;;;;;
2022/06/04 09:07:31;;;;;;;8.35;2.72;;;;;;;;;;4763823;29;20244;-65
2022/06/04 09:20:12;;;;;;;;;;;;;;;;;;;;;
2022/06/04 10:46:04;;;;;;;8.15;2.65;;;;;;;;;;4760416;29;20173;-65
2022/06/04 10:48:59;;;;;;;5.78;2.25;;;;;;;;;;4723187;29;20180;-64
2022/06/04 10:52:10;;;;;;;6.90;2.30;;;;;;;;;;4709435;29;20301;-65
2022/06/04 11:31:45;;;;;;;8.18;2.00;;;;;;;;;;4943816;28;20118;-68
2022/06/04 11:34:49;;;;;;;6.65;1.90;;;;;;;;;;4959369;28;20027;-68
2022/06/04 11:37:45;;;;;;;8.43;2.10;;;;;;;;;;4875801;29;20141;-68
2022/06/04 11:40:16;;;;;;;5.80;2.20;;;;;;;;;;4901434;29;20044;-68
2022/06/04 11:42:53;;;;;;;9.80;2.10;;;;;;;;;;4973500;28;20018;-68
2022/06/04 11:45:22;;;;;;;5.03;2.05;;;;;;;;;;4974468;28;20034;-68
2022/06/04 11:47:53;;;;;;;4.38;1.83;;;;;;;;;;4973533;28;20029;-68
2022/06/04 11:50:23;;;;;;;6.85;2.30;;;;;;;;;;4973399;28;20042;-68
2022/06/04 11:52:56;;;;;;;10.10;2.20;;;;;;;;;;4974150;28;20018;-68
2022/06/04 11:55:25;;;;;;;6.80;2.50;;;;;;;;;;4974444;28;20074;-68
2022/06/04 11:57:57;;;;;;;7.72;2.38;;;;;;;;;;4974196;28;20015;-68
2022/06/04 12:00:40;;;;;;;6.10;2.20;;;;;;;;;;4968249;28;20037;-69
2022/06/04 12:03:11;;;;;;;6.57;2.27;;;;;;;;;;4973581;28;20026;-68
2022/06/04 12:05:55;;;;;;;4.25;1.98;;;;;;;;;;4967226;28;20034;-68
2022/06/04 12:08:23;;;;;;;5.20;2.10;;;;;;;;;;4969117;28;20026;-68
2022/06/04 12:11:07;;;;;;;7.03;1.98;;;;;;;;;;4973970;28;20173;-68
2022/06/04 12:13:35;;;;;;;4.82;2.22;;;;;;;;;;4961461;28;20512;-68
2022/06/04 12:16:10;;;;;;;4.60;2.00;;;;;;;;;;4970606;28;20037;-68
2022/06/04 12:18:41;;;;;;;3.28;1.83;;;;;;;;;;4966657;28;20034;-68
2022/06/04 12:24:18;;;;;;;5.88;1.98;;;;;;;;;;4968976;28;20446;-68
2022/06/04 12:26:47;;;;;;;8.55;2.42;;;;;;;;;;4966900;28;20035;-68
2022/06/04 12:29:28;;;;;;;5.35;2.00;;;;;;;;;;4967659;28;20086;-68
2022/06/04 12:31:55;;;;;;;3.83;1.67;;;;;;;;;;4960169;28;20093;-68
2022/06/04 12:34:26;;;;;;;10.23;2.50;;;;;;;;;;4959599;28;20014;-68
2022/06/04 12:36:52;;;;;;;6.00;2.42;;;;;;;;;;4959699;28;20130;-69
2022/06/04 12:39:27;;;;;;;4.35;2.17;;;;;;;;;;4964730;28;20043;-68
2022/06/04 12:41:57;;;;;;;6.57;2.58;;;;;;;;;;4973418;28;20030;-68
2022/06/04 12:44:24;;;;;;;8.07;2.20;;;;;;;;;;4971476;28;20105;-68
2022/06/04 12:46:51;;;;;;;5.32;2.10;;;;;;;;;;4968660;28;20015;-68
2022/06/04 12:49:27;;;;;;;5.63;2.22;;;;;;;;;;4967369;28;20035;-68
2022/06/04 12:51:56;;;;;;;7.97;2.28;;;;;;;;;;4970519;28;20030;-68
2022/06/04 12:54:41;;;;;;;9.68;1.92;;;;;;;;;;4964626;28;20027;-68
2022/06/04 12:57:25;;;;;;;4.97;2.35;;;;;;;;;;4965321;28;20130;-68
2022/06/04 12:59:51;;;;;;;8.52;2.35;;;;;;;;;;4970912;28;20027;-67
2022/06/04 13:02:43;;;;;;;9.80;2.85;;;;;;;;;;4973789;28;20089;-67
2022/06/04 13:05:10;;;;;;;5.68;2.85;;;;;;;;;;4927891;28;20533;-68
2022/06/04 13:07:47;;;;;;;6.00;2.10;;;;;;;;;;4972942;28;20042;-68
2022/06/04 13:10:25;;;;;;;14.75;2.05;;;;;;;;;;4968919;28;20451;-68
2022/06/04 13:12:51;;;;;;;3.55;1.70;;;;;;;;;;4972994;28;20031;-68
2022/06/04 13:15:31;;;;;;;7.60;1.98;;;;;;;;;;4973600;28;20469;-68
2022/06/04 13:17:57;;;;;;;9.65;2.30;;;;;;;;;;4972344;28;20039;-67
2022/06/04 13:20:34;;;;;;;5.75;2.45;;;;;;;;;;4972853;28;20428;-68
2022/06/04 13:23:10;;;;;;;5.45;1.80;;;;;;;;;;4960625;28;20035;-68
2022/06/04 13:25:38;;;;;;;5.63;2.00;;;;;;;;;;4969397;28;20058;-68
2022/06/04 13:28:03;;;;;;;6.32;2.30;;;;;;;;;;4970308;28;20043;-68
2022/06/04 13:30:32;;;;;;;10.00;2.53;;;;;;;;;;4974398;28;20066;-68
2022/06/04 13:33:04;;;;;;;7.20;2.53;;;;;;;;;;4976958;28;20106;-68
2022/06/04 13:35:31;;;;;;;3.60;2.05;;;;;;;;;;4975806;28;20073;-68
2022/06/04 13:37:57;;;;;;;5.75;2.13;;;;;;;;;;4970828;28;20027;-68
2022/06/04 13:40:26;;;;;;;4.07;2.35;;;;;;;;;;4970864;28;20033;-68
2022/06/04 13:42:54;;;;;;;5.00;2.13;;;;;;;;;;4976583;28;20031;-68
2022/06/04 13:45:25;;;;;;;5.40;2.08;;;;;;;;;;4976844;28;20022;-68
2022/06/04 13:47:55;;;;;;;8.82;2.53;;;;;;;;;;4977436;28;20023;-68
2022/06/04 13:50:21;;;;;;;5.57;1.85;;;;;;;;;;4976563;28;20038;-68
2022/06/04 13:52:49;;;;;;;9.43;2.38;;;;;;;;;;4975998;28;20451;-68
2022/06/04 13:55:17;;;;;;;6.88;2.35;;;;;;;;;;4959152;28;20413;-68
2022/06/04 13:57:44;;;;;;;7.35;2.28;;;;;;;;;;4976976;28;20129;-68
2022/06/04 14:00:17;;;;;;;4.18;2.08;;;;;;;;;;4969966;28;20031;-68
2022/06/04 14:02:45;;;;;;;3.42;1.80;;;;;;;;;;4959796;28;20039;-68
2022/06/04 14:05:44;;;;;;;7.63;2.30;;;;;;;;;;4976605;28;20030;-68
2022/06/04 14:08:11;;;;;;;6.10;2.08;;;;;;;;;;4972939;28;20042;-68
2022/06/04 14:10:36;;;;;;;5.60;2.35;;;;;;;;;;4967951;28;20039;-68
2022/06/04 14:13:07;;;;;;;2.13;1.45;;;;;;;;;;4967550;28;20043;-68
2022/06/04 14:15:40;;;;;;;4.57;2.30;;;;;;;;;;4976484;28;20030;-68
2022/06/04 14:18:14;;;;;;;4.65;2.10;;;;;;;;;;4969021;28;20039;-68
2022/06/04 14:20:56;;;;;;;4.65;2.15;;;;;;;;;;4970454;28;20086;-68
2022/06/04 14:23:37;;;;;;;6.05;2.40;;;;;;;;;;4974145;28;20167;-68
2022/06/04 14:26:14;;;;;;;7.13;1.88;;;;;;;;;;4975103;28;20053;-68
2022/06/04 14:28:39;;;;;;;3.45;2.00;;;;;;;;;;4976210;28;20039;-68
2022/06/04 14:31:25;;;;;;;7.55;2.30;;;;;;;;;;4975337;28;20047;-68
2022/06/04 14:33:55;;;;;;;5.65;2.30;;;;;;;;;;4929993;28;20047;-68
2022/06/04 14:36:21;;;;;;;4.43;1.80;;;;;;;;;;4975722;28;20517;-68
2022/06/04 14:38:48;;;;;;;5.15;2.17;;;;;;;;;;4975717;28;20034;-68
2022/06/04 14:41:19;;;;;;;8.02;2.40;;;;;;;;;;4975902;28;20054;-68
2022/06/04 14:43:47;;;;;;;4.78;2.05;;;;;;;;;;4969895;28;20021;-68
2022/06/04 14:46:26;;;;;;;5.90;2.10;;;;;;;;;;4975530;28;20077;-68
2022/06/04 14:49:15;;;;;;;5.07;1.80;;;;;;;;;;4975672;28;20429;-68
2022/06/04 14:51:59;;;;;;;3.83;1.75;;;;;;;;;;4957149;28;20147;-68
2022/06/04 14:54:25;;;;;;;6.90;1.85;;;;;;;;;;4975762;28;20027;-68
2022/06/04 14:56:53;;;;;;;6.43;2.42;;;;;;;;;;4975442;28;20058;-68
2022/06/04 14:59:21;;;;;;;7.60;2.13;;;;;;;;;;4976048;28;20019;-68
2022/06/04 15:02:14;;;;;;;6.88;1.90;;;;;;;;;;4975622;28;20113;-68
2022/06/04 15:07:19;;;;;;;5.90;1.83;;;;;;;;;;4968328;28;20114;-68
2022/06/04 15:10:03;;;;;;;4.97;2.05;;;;;;;;;;4975347;28;20088;-67
2022/06/04 15:12:34;;;;;;;8.55;2.40;;;;;;;;;;4975366;28;20034;-68
2022/06/04 15:15:07;;;;;;;7.40;2.70;;;;;;;;;;4975659;28;20027;-67
2022/06/04 15:17:38;;;;;;;6.90;2.47;;;;;;;;;;4974907;28;20508;-67
2022/06/04 15:20:12;;;;;;;5.35;1.95;;;;;;;;;;4974673;28;20042;-68
2022/06/04 15:22:45;;;;;;;6.80;2.08;;;;;;;;;;4974533;28;20102;-68
2022/06/04 15:25:20;;;;;;;4.80;1.85;;;;;;;;;;4975260;28;20053;-68
2022/06/04 15:27:54;;;;;;;4.50;2.00;;;;;;;;;;4967319;28;20072;-68
2022/06/04 15:36:23;;;;;;;10.70;2.47;;;;;;;;;;4961908;28;20043;-68
2022/06/04 15:38:48;;;;;;;13.25;2.53;;;;;;;;;;4963581;28;20099;-68
2022/06/04 15:41:20;;;;;;;5.93;1.92;;;;;;;;;;4972885;28;20030;-68
2022/06/04 15:43:45;;;;;;;5.40;1.83;;;;;;;;;;4958629;28;20020;-67
2022/06/04 15:46:18;;;;;;;8.80;1.88;;;;;;;;;;4962008;28;20037;-68
2022/06/04 15:48:45;;;;;;;3.83;1.88;;;;;;;;;;4965569;28;20039;-68
2022/06/04 15:56:47;;;;;;;;;;;;;;;;;;4967255;28;20085;-68
2022/06/04 15:59:20;;;;;;;6.38;2.03;;;;;;;;;;4974155;28;19906;-68
2022/06/04 16:01:48;;;;;;;5.55;2.08;;;;;;;;;;4962633;28;20026;-67
2022/06/04 16:04:14;;;;;;;5.47;2.30;;;;;;;;;;4971770;28;20023;-68
2022/06/04 16:06:45;;;;;;;4.43;2.30;;;;;;;;;;4967399;28;20130;-68
2022/06/04 16:09:12;;;;;;;6.25;2.28;;;;;;;;;;4954388;28;20035;-67
2022/06/04 16:11:38;;;;;;;5.97;2.20;;;;;;;;;;4970708;28;20026;-68
2022/06/04 16:14:06;;;;;;;5.22;2.10;;;;;;;;;;4968877;28;20038;-68
2022/06/04 16:16:41;;;;;;;7.20;2.17;;;;;;;;;;4969868;28;20050;-68
2022/06/04 16:19:12;;;;;;;5.00;2.42;;;;;;;;;;4963326;28;20101;-68
2022/06/04 16:21:58;;;;;;;6.28;1.98;;;;;;;;;;4962090;28;20031;-68
2022/06/04 16:24:30;;;;;;;6.95;2.25;;;;;;;;;;4963586;28;20542;-68
2022/06/04 16:26:56;;;;;;;5.63;2.00;;;;;;;;;;4956166;28;20033;-68
2022/06/04 16:29:21;;;;;;;7.78;2.22;;;;;;;;;;4972122;28;20455;-68
2022/06/04 16:32:05;;;;;;;5.85;2.10;;;;;;;;;;4970708;28;20069;-67
2022/06/04 16:34:49;;;;;;;7.07;2.28;;;;;;;;;;4972911;28;20067;-68
2022/06/04 16:37:14;;;;;;;;;;;;;;;;;;4970751;28;20042;-68
2022/06/04 16:39:47;;;;;;;6.60;2.00;;;;;;;;;;4969320;28;19914;-68
2022/06/04 16:42:15;;;;;;;4.20;2.10;;;;;;;;;;4963278;28;20031;-68
2022/06/04 16:44:44;;;;;;;6.88;1.92;;;;;;;;;;4971227;28;20101;-68
2022/06/04 16:47:09;;;;;;;7.50;2.28;;;;;;;;;;4966533;28;20510;-68
2022/06/04 16:49:48;;;;;;;5.40;2.42;;;;;;;;;;4962652;28;20019;-67
2022/06/04 16:52:21;;;;;;;4.65;2.10;;;;;;;;;;4968776;28;20035;-67
2022/06/04 16:54:48;;;;;;;3.25;1.52;;;;;;;;;;4968140;28;20062;-68
2022/06/04 16:57:13;;;;;;;6.18;2.17;;;;;;;;;;4970487;28;20051;-67
2022/06/04 16:59:38;;;;;;;3.75;2.20;;;;;;;;;;4967531;28;20038;-68
2022/06/04 17:02:22;;;;;;;4.90;2.28;;;;;;;;;;4964653;28;20031;-67
2022/06/04 17:04:50;;;;;;;7.55;2.40;;;;;;;;;;4965545;28;20513;-68
2022/06/04 17:07:23;;;;;;;5.72;2.00;;;;;;;;;;4969276;28;20034;-67
2022/06/04 17:10:05;;;;;;;2.92;1.98;;;;;;;;;;4968336;28;20487;-68
2022/06/04 17:12:49;;;;;;;5.93;2.10;;;;;;;;;;4972430;28;20035;-68
2022/06/04 17:15:14;;;;;;;5.78;2.00;;;;;;;;;;4973873;28;20134;-67
2022/06/04 17:17:46;;;;;;;4.80;2.05;;;;;;;;;;4961429;28;20103;-68
2022/06/04 17:20:27;;;;;;;8.57;2.40;;;;;;;;;;4965009;28;20025;-68
2022/06/04 19:13:48;;;;;;;;;;;;;;;;;;4713797;29;20287;-65
2022/06/04 19:40:28;;;;;;;;;;;;;;;;;;;;;
2022/06/04 19:45:57;;;;;;;9.88;3.53;;;;;;;;;;4752734;29;20493;-64
2022/06/04 19:48:29;;;;;;;11.45;3.05;;;;;;;;;;4763025;29;20204;-65
2022/06/04 20:04:36;;;;;;;10.15;3.05;;;;;;;;;;4940145;23;20558;-67
2022/06/04 20:07:03;;;;;;;12.02;3.30;;;;;;;;;;4937759;29;20043;-67
2022/06/04 20:09:29;;;;;;;9.07;3.15;;;;;;;;;;4942821;29;20063;-67
2022/06/04 20:11:54;;;;;;;7.70;3.17;;;;;;;;;;4953146;29;20082;-68
2022/06/04 20:14:20;;;;;;;11.90;3.47;;;;;;;;;;4945504;29;20040;-68
2022/06/04 20:16:46;;;;;;;10.32;2.63;;;;;;;;;;4948451;29;20046;-67
2022/06/04 20:19:11;;;;;;;12.02;3.92;;;;;;;;;;4948454;29;20015;-67
2022/06/04 20:21:37;;;;;;;8.18;3.05;;;;;;;;;;4946988;29;20375;-67
2022/06/04 20:24:02;;;;;;;9.25;3.10;;;;;;;;;;4940621;29;20032;-67
2022/06/04 20:26:28;;;;;;;20.17;2.90;;;;;;;;;;4952923;28;20031;-67
2022/06/04 20:28:54;;;;;;;7.43;2.78;;;;;;;;;;4964449;28;20077;-67
2022/06/04 20:31:20;;;;;;;8.00;3.08;;;;;;;;;;4960809;28;20103;-68
2022/06/04 20:33:45;;;;;;;6.55;2.80;;;;;;;;;;4961882;28;20059;-67
2022/06/04 20:36:14;;;;;;;5.90;2.28;;;;;;;;;;4958596;28;20394;-68
2022/06/04 20:38:40;;;;;;;12.60;3.15;;;;;;;;;;4963046;28;20029;-67
2022/06/04 20:41:10;;;;;;;8.35;2.97;;;;;;;;;;4958350;28;20497;-67
2022/06/04 20:43:36;;;;;;;8.07;2.80;;;;;;;;;;4958176;28;20037;-67
2022/06/04 20:46:03;;;;;;;7.47;2.85;;;;;;;;;;4965685;28;20115;-67